Time,TemperatureF,DewpointF,PressureIn,WindDirection,WindDirectionDegrees,WindSpeedMPH,WindSpeedGustMPH,Humidity,HourlyPrecipIn,Conditions,Clouds,dailyrainin,SolarRadiationWatts/m^2,SoftwareType,DateUTC
2013-03-08 00:11:00,43.7,40.0,29.86,NNW,339,0.0,1.0,88,0.00,,,0.01,0,weatherlink.com 1.10,2013-03-08 08:11:00,
2013-03-08 00:26:00,43.9,40.0,29.86,North,349,0.0,2.0,86,0.00,,,0.00,0,weatherlink.com 1.10,2013-03-08 08:26:00,
2013-03-08 00:41:00,43.8,40.0,29.86,North,349,0.0,1.0,86,0.00,,,0.00,0,weatherlink.com 1.10,2013-03-08 08:41:00,
2013-03-08 00:56:00,44.3,40.0,29.86,NNW,337,0.0,1.0,84,0.00,,,0.00,0,weatherlink.com 1.10,2013-03-08 08:56:00,
2013-03-08 01:11:00,44.7,40.0,29.86,NNE,24,1.0,3.0,82,0.00,,,0.00,0,weatherlink.com 1.10,2013-03-08 09:11:00,
2013-03-08 01:26:00,45.0,40.0,29.86,North,10,1.0,2.0,81,0.00,,,0.00,0,weatherlink.com 1.10,2013-03-08 09:26:00,
2013-03-08 01:41:00,44.8,39.0,29.86,NW,326,2.0,5.0,81,0.00,,,0.00,0,weatherlink.com 1.10,2013-03-08 09:41:00,
2013-03-08 01:56:00,44.7,39.0,29.86,NE,44,2.0,7.0,80,0.00,,,0.00,0,weatherlink.com 1.10,2013-03-08 09:56:00,
2013-03-08 02:11:00,44.4,39.0,29.86,NNE,31,1.0,5.0,81,0.00,,,0.00,0,weatherlink.com 1.10,2013-03-08 10:11:00,
2013-03-08 02:26:00,44.1,39.0,29.85,NNE,22,0.0,4.0,82,0.00,,,0.00,0,weatherlink.com 1.10,2013-03-08 10:26:00,
2013-03-08 02:41:00,43.7,39.0,29.85,NNW,331,1.0,4.0,82,0.00,,,0.00,0,weatherlink.com 1.10,2013-03-08 10:41:00,
2013-03-08 02:56:00,43.4,38.0,29.84,North,350,0.0,4.0,82,0.00,,,0.00,0,weatherlink.com 1.10,2013-03-08 10:56:00,
2013-03-08 03:12:00,43.3,39.0,29.84,North,355,1.0,4.0,83,0.00,,,0.00,0,weatherlink.com 1.10,2013-03-08 11:12:00,
2013-03-08 03:27:00,43.1,38.0,29.84,North,350,0.0,4.0,83,0.00,,,0.00,0,weatherlink.com 1.10,2013-03-08 11:27:00,
2013-03-08 03:42:00,42.8,38.0,29.84,North,9,0.0,3.0,83,0.00,,,0.00,0,weatherlink.com 1.10,2013-03-08 11:42:00,
2013-03-08 03:57:00,42.5,38.0,29.84,NNE,12,1.0,3.0,83,0.00,,,0.00,0,weatherlink.com 1.10,2013-03-08 11:57:00,
2013-03-08 04:12:00,42.3,38.0,29.84,NNE,27,0.0,3.0,83,0.00,,,0.00,0,weatherlink.com 1.10,2013-03-08 12:12:00,
2013-03-08 04:27:00,41.9,37.0,29.85,North,11,2.0,2.0,83,0.00,,,0.00,0,weatherlink.com 1.10,2013-03-08 12:27:00,
2013-03-08 04:42:00,41.5,37.0,29.85,North,11,0.0,3.0,84,0.00,,,0.00,0,weatherlink.com 1.10,2013-03-08 12:42:00,
2013-03-08 04:57:00,40.7,37.0,29.85,North,11,0.0,1.0,85,0.00,,,0.00,0,weatherlink.com 1.10,2013-03-08 12:57:00,
2013-03-08 05:12:00,40.1,37.0,29.85,North,11,0.0,2.0,87,0.00,,,0.00,0,weatherlink.com 1.10,2013-03-08 13:12:00,
2013-03-08 05:27:00,39.9,36.0,29.85,North,11,1.0,1.0,87,0.00,,,0.00,0,weatherlink.com 1.10,2013-03-08 13:27:00,
2013-03-08 05:42:00,40.0,36.0,29.86,North,5,1.0,2.0,86,0.00,,,0.00,0,weatherlink.com 1.10,2013-03-08 13:42:00,
2013-03-08 05:57:00,39.7,36.0,29.86,North,5,0.0,3.0,87,0.00,,,0.00,0,weatherlink.com 1.10,2013-03-08 13:57:00,
2013-03-08 06:12:00,40.1,36.0,29.86,North,360,1.0,3.0,86,0.00,,,0.00,0,weatherlink.com 1.10,2013-03-08 14:12:00,
2013-03-08 06:27:00,40.2,36.0,29.86,North,11,0.0,2.0,85,0.00,,,0.00,0,weatherlink.com 1.10,2013-03-08 14:27:00,
2013-03-08 06:42:00,39.6,36.0,29.86,North,11,1.0,4.0,86,0.00,,,0.00,7,weatherlink.com 1.10,2013-03-08 14:42:00,
2013-03-08 06:57:00,39.0,35.0,29.86,NNE,18,1.0,3.0,86,0.00,,,0.00,16,weatherlink.com 1.10,2013-03-08 14:57:00,
2013-03-08 07:12:00,39.1,36.0,29.86,NNE,24,1.0,4.0,87,0.00,,,0.00,28,weatherlink.com 1.10,2013-03-08 15:12:00,
2013-03-08 07:27:00,40.1,36.0,29.86,NNE,16,0.0,3.0,86,0.00,,,0.00,62,weatherlink.com 1.10,2013-03-08 15:27:00,
2013-03-08 07:42:00,41.1,37.0,29.87,North,5,2.0,4.0,85,0.00,,,0.00,188,weatherlink.com 1.10,2013-03-08 15:42:00,
2013-03-08 07:57:00,42.4,38.0,29.88,NNE,26,2.0,4.0,83,0.00,,,0.00,237,weatherlink.com 1.10,2013-03-08 15:57:00,
2013-03-08 08:12:00,43.7,39.0,29.88,NNE,28,1.0,5.0,82,0.00,,,0.00,299,weatherlink.com 1.10,2013-03-08 16:12:00,
2013-03-08 08:27:00,45.0,39.0,29.88,North,355,3.0,4.0,80,0.00,,,0.00,339,weatherlink.com 1.10,2013-03-08 16:27:00,
2013-03-08 08:42:00,46.5,40.0,29.89,North,360,2.0,4.0,79,0.00,,,0.00,383,weatherlink.com 1.10,2013-03-08 16:42:00,
2013-03-08 08:57:00,47.8,40.0,29.89,NNE,28,0.0,3.0,73,0.00,,,0.00,443,weatherlink.com 1.10,2013-03-08 16:57:00,
2013-03-08 09:13:00,48.6,40.0,29.88,WNW,298,2.0,5.0,71,0.00,,,0.00,490,weatherlink.com 1.10,2013-03-08 17:13:00,
2013-03-08 09:28:00,48.9,40.0,29.89,NW,311,3.0,5.0,71,0.00,,,0.00,517,weatherlink.com 1.10,2013-03-08 17:28:00,
2013-03-08 09:43:00,49.5,41.0,29.89,North,10,2.0,6.0,73,0.00,,,0.00,548,weatherlink.com 1.10,2013-03-08 17:43:00,
2013-03-08 09:58:00,50.0,41.0,29.89,NW,315,4.0,5.0,71,0.00,,,0.00,559,weatherlink.com 1.10,2013-03-08 17:58:00,
2013-03-08 10:13:00,51.4,42.0,29.89,NNW,337,2.0,5.0,71,0.00,,,0.00,452,weatherlink.com 1.10,2013-03-08 18:13:00,
2013-03-08 10:28:00,51.7,42.0,29.89,North,9,4.0,8.0,70,0.00,,,0.00,464,weatherlink.com 1.10,2013-03-08 18:28:00,
2013-03-08 10:43:00,52.5,43.0,29.89,West,275,2.0,8.0,70,0.00,,,0.00,497,weatherlink.com 1.10,2013-03-08 18:43:00,
2013-03-08 10:58:00,54.0,43.0,29.89,NW,326,4.0,7.0,67,0.00,,,0.00,673,weatherlink.com 1.10,2013-03-08 18:58:00,
2013-03-08 11:13:00,55.4,43.0,29.88,North,355,3.0,10.0,64,0.00,,,0.00,738,weatherlink.com 1.10,2013-03-08 19:13:00,
2013-03-08 11:28:00,56.3,44.0,29.88,NNW,348,3.0,7.0,64,0.00,,,0.00,731,weatherlink.com 1.10,2013-03-08 19:28:00,
2013-03-08 11:43:00,56.8,44.0,29.88,NNE,14,4.0,10.0,62,0.00,,,0.00,737,weatherlink.com 1.10,2013-03-08 19:43:00,
2013-03-08 11:58:00,57.3,45.0,29.88,NNW,333,1.0,11.0,63,0.00,,,0.00,744,weatherlink.com 1.10,2013-03-08 19:58:00,
2013-03-08 12:13:00,56.9,45.0,29.88,NW,320,6.0,13.0,64,0.00,,,0.00,742,weatherlink.com 1.10,2013-03-08 20:13:00,
2013-03-08 12:28:00,56.8,45.0,29.87,WNW,287,5.0,15.0,65,0.00,,,0.00,738,weatherlink.com 1.10,2013-03-08 20:28:00,
2013-03-08 12:43:00,57.0,45.0,29.87,WNW,284,11.0,15.0,64,0.00,,,0.00,735,weatherlink.com 1.10,2013-03-08 20:43:00,
2013-03-08 12:58:00,56.5,45.0,29.86,North,360,7.0,12.0,66,0.00,,,0.00,724,weatherlink.com 1.10,2013-03-08 20:58:00,
2013-03-08 13:13:00,57.3,46.0,29.86,West,278,11.0,13.0,66,0.00,,,0.00,710,weatherlink.com 1.10,2013-03-08 21:13:00,
2013-03-08 13:28:00,57.2,45.0,29.86,North,360,11.0,15.0,65,0.00,,,0.00,563,weatherlink.com 1.10,2013-03-08 21:28:00,
2013-03-08 13:43:00,57.5,45.0,29.85,NW,318,3.0,16.0,63,0.00,,,0.00,70,weatherlink.com 1.10,2013-03-08 21:43:00,
2013-03-08 13:58:00,57.0,46.0,29.85,NNW,345,8.0,14.0,66,0.00,,,0.00,51,weatherlink.com 1.10,2013-03-08 21:58:00,
2013-03-08 14:13:00,56.9,46.0,29.85,NNW,338,10.0,15.0,66,0.00,,,0.00,51,weatherlink.com 1.10,2013-03-08 22:13:00,
2013-03-08 14:28:00,56.2,45.0,29.85,NW,304,8.0,19.0,66,0.00,,,0.00,49,weatherlink.com 1.10,2013-03-08 22:28:00,
2013-03-08 14:43:00,57.1,46.0,29.85,NNE,14,6.0,18.0,66,0.00,,,0.00,79,weatherlink.com 1.10,2013-03-08 22:43:00,
2013-03-08 14:58:00,56.0,45.0,29.85,NNW,335,6.0,22.0,66,0.00,,,0.00,464,weatherlink.com 1.10,2013-03-08 22:58:00,
2013-03-08 15:13:00,56.0,45.0,29.86,WNW,300,10.0,18.0,67,0.00,,,0.00,466,weatherlink.com 1.10,2013-03-08 23:13:00,
2013-03-08 15:28:00,55.7,45.0,29.86,North,351,5.0,16.0,67,0.00,,,0.00,427,weatherlink.com 1.10,2013-03-08 23:28:00,
2013-03-08 15:43:00,56.0,45.0,29.86,NW,322,7.0,16.0,67,0.00,,,0.00,381,weatherlink.com 1.10,2013-03-08 23:43:00,
2013-03-08 15:58:00,55.1,45.0,29.86,West,273,8.0,16.0,68,0.00,,,0.00,336,weatherlink.com 1.10,2013-03-08 23:58:00,
2013-03-08 16:13:00,54.7,45.0,29.86,NW,319,9.0,15.0,69,0.00,,,0.00,176,weatherlink.com 1.10,2013-03-09 00:13:00,
2013-03-08 16:28:00,54.4,44.0,29.86,NNW,331,11.0,14.0,69,0.00,,,0.00,139,weatherlink.com 1.10,2013-03-09 00:28:00,
2013-03-08 16:43:00,54.4,45.0,29.87,North,5,4.0,13.0,70,0.00,,,0.00,188,weatherlink.com 1.10,2013-03-09 00:43:00,
2013-03-08 16:58:00,54.2,45.0,29.87,NNE,13,3.0,8.0,70,0.00,,,0.00,132,weatherlink.com 1.10,2013-03-09 00:58:00,
2013-03-08 17:13:00,53.3,44.0,29.88,NNE,15,3.0,10.0,72,0.00,,,0.00,83,weatherlink.com 1.10,2013-03-09 01:13:00,
2013-03-08 17:28:00,53.2,44.0,29.89,North,355,5.0,8.0,71,0.00,,,0.00,42,weatherlink.com 1.10,2013-03-09 01:28:00,
2013-03-08 17:43:00,52.0,44.0,29.89,NNW,339,2.0,9.0,73,0.00,,,0.00,18,weatherlink.com 1.10,2013-03-09 01:43:00,
2013-03-08 17:58:00,51.1,43.0,29.90,NNE,23,3.0,8.0,75,0.00,,,0.00,11,weatherlink.com 1.10,2013-03-09 01:58:00,
2013-03-08 18:13:00,50.2,43.0,29.91,NNE,15,11.0,13.0,77,0.00,,,0.00,0,weatherlink.com 1.10,2013-03-09 02:13:00,
2013-03-08 18:28:00,49.4,43.0,29.92,NW,312,4.0,11.0,79,0.00,,,0.00,0,weatherlink.com 1.10,2013-03-09 02:28:00,
2013-03-08 18:43:00,48.8,43.0,29.93,NNE,31,5.0,12.0,80,0.00,,,0.00,0,weatherlink.com 1.10,2013-03-09 02:43:00,
2013-03-08 18:59:00,48.4,43.0,29.93,NW,310,8.0,13.0,81,0.00,,,0.00,0,weatherlink.com 1.10,2013-03-09 02:59:00,
2013-03-08 19:14:00,48.0,43.0,29.94,NNW,345,3.0,11.0,82,0.00,,,0.00,0,weatherlink.com 1.10,2013-03-09 03:14:00,
2013-03-08 19:29:00,47.9,43.0,29.95,NNE,24,7.0,10.0,82,0.00,,,0.00,0,weatherlink.com 1.10,2013-03-09 03:29:00,
2013-03-08 19:44:00,47.6,43.0,29.95,NNE,32,6.0,10.0,83,0.00,,,0.00,0,weatherlink.com 1.10,2013-03-09 03:44:00,
2013-03-08 19:59:00,47.2,42.0,29.96,NNW,329,3.0,10.0,83,0.00,,,0.00,0,weatherlink.com 1.10,2013-03-09 03:59:00,
2013-03-08 20:14:00,47.2,42.0,29.96,NNE,30,2.0,8.0,83,0.00,,,0.00,0,weatherlink.com 1.10,2013-03-09 04:14:00,
2013-03-08 20:29:00,47.0,42.0,29.97,North,360,4.0,8.0,83,0.00,,,0.00,0,weatherlink.com 1.10,2013-03-09 04:29:00,
2013-03-08 20:44:00,46.7,42.0,29.98,NNE,26,3.0,7.0,83,0.00,,,0.00,0,weatherlink.com 1.10,2013-03-09 04:44:00,
2013-03-08 20:59:00,46.6,42.0,29.99,North,355,0.0,6.0,83,0.00,,,0.00,0,weatherlink.com 1.10,2013-03-09 04:59:00,
2013-03-08 21:14:00,46.3,41.0,29.99,North,11,0.0,4.0,83,0.00,,,0.00,0,weatherlink.com 1.10,2013-03-09 05:14:00,
2013-03-08 21:29:00,45.9,41.0,30.00,NE,42,0.0,2.0,83,0.00,,,0.00,0,weatherlink.com 1.10,2013-03-09 05:29:00,
2013-03-08 21:44:00,45.3,41.0,30.01,NE,38,0.0,2.0,84,0.00,,,0.00,0,weatherlink.com 1.10,2013-03-09 05:44:00,
2013-03-08 21:59:00,44.7,41.0,30.01,North,5,2.0,2.0,85,0.00,,,0.00,0,weatherlink.com 1.10,2013-03-09 05:59:00,
2013-03-08 22:14:00,44.7,41.0,30.01,North,355,1.0,5.0,85,0.00,,,0.00,0,weatherlink.com 1.10,2013-03-09 06:14:00,
2013-03-08 22:29:00,44.6,40.0,30.02,NE,51,3.0,5.0,85,0.00,,,0.00,0,weatherlink.com 1.10,2013-03-09 06:29:00,
2013-03-08 22:44:00,44.5,40.0,30.02,NE,45,2.0,5.0,84,0.00,,,0.00,0,weatherlink.com 1.10,2013-03-09 06:44:00,
2013-03-08 22:59:00,44.3,40.0,30.02,ENE,59,1.0,5.0,85,0.00,,,0.00,0,weatherlink.com 1.10,2013-03-09 06:59:00,
2013-03-08 23:14:00,44.1,40.0,30.02,NE,42,1.0,3.0,85,0.00,,,0.00,0,weatherlink.com 1.10,2013-03-09 07:14:00,
2013-03-08 23:29:00,44.0,40.0,30.02,NNE,19,3.0,3.0,85,0.00,,,0.00,0,weatherlink.com 1.10,2013-03-09 07:29:00,
2013-03-08 23:44:00,43.7,40.0,30.02,NNE,30,1.0,2.0,85,0.00,,,0.00,0,weatherlink.com 1.10,2013-03-09 07:44:00,
2013-03-08 23:59:00,43.3,39.0,30.03,NNW,328,0.0,2.0,86,0.00,,,0.00,0,weatherlink.com 1.10,2013-03-09 07:59:00,